Time;durP1;ratioP1;P1;durP2;ratioP2;P2;SDS_P1;SDS_P2;PMS_P1;PMS_P2;Temp;Humidity;BMP_temperature;BMP_pressure;BME280_temperature;BME280_humidity;BME280_pressure;Samples;Min_cycle;Max_cycle;Signal;HPM_P1;HPM_P2
2023/12/20 00:01:50;;;;;;;71.38;40.85;;;;;;;1.63;59.20;94206.41;4997470;28;20031;-75
2023/12/20 00:04:15;;;;;;;64.47;32.47;;;;;;;1.66;59.27;94197.28;5008019;28;20038;-74
2023/12/20 00:06:41;;;;;;;45.30;26.90;;;;;;;1.62;59.22;94196.16;5009424;28;20030;-74
2023/12/20 00:09:06;;;;;;;40.80;22.92;;;;;;;1.61;59.20;94184.91;5008842;28;20408;-74
2023/12/20 00:11:31;;;;;;;39.13;24.15;;;;;;;1.50;59.27;94167.50;4995128;28;20034;-74
2023/12/20 00:13:57;;;;;;;33.97;20.27;;;;;;;1.63;59.23;94193.28;5007689;28;20091;-74
2023/12/20 00:16:22;;;;;;;33.00;19.98;;;;;;;1.61;59.24;94182.28;4996500;28;20029;-76
2023/12/20 00:18:48;;;;;;;30.38;19.10;;;;;;;1.53;59.17;94182.72;5009437;28;20032;-76
2023/12/20 00:21:14;;;;;;;27.42;17.67;;;;;;;1.35;59.16;94159.47;5007378;28;20420;-76
2023/12/20 00:23:39;;;;;;;29.13;17.52;;;;;;;1.37;59.62;94178.38;4995594;28;20118;-77
2023/12/20 00:26:05;;;;;;;30.80;18.50;;;;;;;1.42;59.61;94169.78;4987523;28;20038;-76
2023/12/20 00:28:30;;;;;;;26.25;16.40;;;;;;;0.99;59.82;94116.38;4988695;28;20069;-76
2023/12/20 00:30:56;;;;;;;24.60;15.20;;;;;;;1.38;59.68;94168.66;5004498;28;20040;-76
2023/12/20 00:33:21;;;;;;;16.15;10.85;;;;;;;1.30;59.54;94141.06;5003783;28;20169;-76
2023/12/20 00:35:46;;;;;;;14.07;9.15;;;;;;;1.33;59.30;94139.78;4989198;28;20048;-76
2023/12/20 00:38:12;;;;;;;13.95;7.60;;;;;;;1.44;59.43;94151.94;5007361;28;20500;-76
2023/12/20 00:40:37;;;;;;;9.93;6.82;;;;;;;1.43;59.02;94150.38;5007476;28;20386;-76
2023/12/20 00:43:03;;;;;;;10.60;6.85;;;;;;;1.47;59.08;94141.75;5004143;28;20049;-76
2023/12/20 00:45:28;;;;;;;10.57;5.93;;;;;;;1.49;58.94;94141.50;4990189;28;20471;-76
2023/12/20 00:47:55;;;;;;;8.18;5.75;;;;;;;1.54;58.62;94144.97;4992483;28;20037;-76
2023/12/20 00:50:21;;;;;;;11.75;7.07;;;;;;;1.45;58.81;94143.06;5010383;28;20132;-77
2023/12/20 00:52:47;;;;;;;12.32;8.18;;;;;;;1.37;59.02;94136.44;5004380;28;20104;-76
2023/12/20 00:55:13;;;;;;;14.65;8.73;;;;;;;1.46;58.92;94142.81;5008746;28;20620;-76
2023/12/20 00:57:39;;;;;;;13.15;9.40;;;;;;;1.45;58.79;94148.28;4992405;28;20436;-75
2023/12/20 01:00:05;;;;;;;21.63;11.10;;;;;;;1.44;58.77;94139.63;5007058;28;20033;-75
2023/12/20 01:02:30;;;;;;;14.68;8.98;;;;;;;1.46;58.74;94134.94;5008669;28;20029;-76
2023/12/20 01:04:56;;;;;;;18.33;9.77;;;;;;;1.37;58.59;94125.97;5007947;28;20042;-76
2023/12/20 01:07:21;;;;;;;13.38;9.48;;;;;;;1.27;58.62;94112.75;5003716;28;20042;-76
2023/12/20 01:09:46;;;;;;;15.35;10.30;;;;;;;1.37;58.88;94122.53;5010853;28;20377;-76
2023/12/20 01:12:12;;;;;;;12.90;8.75;;;;;;;1.38;58.84;94111.00;5004430;28;20103;-75
2023/12/20 01:14:39;;;;;;;10.50;6.05;;;;;;;1.40;58.83;94120.22;5003728;28;20034;-77
2023/12/20 01:17:04;;;;;;;7.78;4.70;;;;;;;1.32;58.57;94102.31;5006571;28;20136;-76
2023/12/20 01:19:30;;;;;;;10.00;4.68;;;;;;;1.35;58.44;94114.13;4995014;28;20075;-76
2023/12/20 01:21:55;;;;;;;9.13;5.82;;;;;;;1.20;58.40;94088.56;4992820;28;20033;-77
2023/12/20 01:24:20;;;;;;;10.98;7.53;;;;;;;1.21;58.28;94093.56;4995536;28;20144;-76
2023/12/20 01:26:46;;;;;;;13.68;7.90;;;;;;;1.22;58.03;94076.03;5008410;28;20029;-75
2023/12/20 01:29:12;;;;;;;13.57;8.48;;;;;;;1.20;58.39;94078.88;5007421;28;20065;-77
2023/12/20 01:31:37;;;;;;;15.68;8.35;;;;;;;1.34;58.49;94092.38;4990178;28;20404;-76
2023/12/20 01:34:02;;;;;;;17.23;10.93;;;;;;;1.38;58.31;94090.03;5003989;28;20188;-76
2023/12/20 01:36:29;;;;;;;16.88;10.52;;;;;;;0.86;58.42;94019.88;5011476;28;20021;-76
2023/12/20 01:38:55;;;;;;;24.63;14.93;;;;;;;1.23;58.62;94074.97;5007679;28;20517;-76
2023/12/20 01:41:20;;;;;;;20.75;12.85;;;;;;;1.27;58.53;94077.91;4992838;28;20099;-76
2023/12/20 01:43:45;;;;;;;23.13;15.95;;;;;;;1.05;58.52;94046.50;5008313;28;20069;-76
2023/12/20 01:46:12;;;;;;;26.30;16.15;;;;;;;1.31;58.52;94082.41;5010094;28;20026;-76
2023/12/20 01:48:38;;;;;;;22.38;14.55;;;;;;;1.21;58.76;94059.50;4988253;28;20692;-76
2023/12/20 01:51:04;;;;;;;26.02;15.43;;;;;;;1.27;58.98;94077.91;4989969;28;20041;-76
2023/12/20 01:53:30;;;;;;;17.55;12.15;;;;;;;1.29;58.61;94066.13;5011320;28;20041;-76
2023/12/20 01:55:58;;;;;;;20.42;12.07;;;;;;;1.23;58.82;94056.63;5007333;28;20033;-75
2023/12/20 01:58:24;;;;;;;19.40;12.07;;;;;;;1.25;58.72;94051.94;5008891;28;20040;-75
2023/12/20 02:00:50;;;;;;;22.23;11.75;;;;;;;1.14;58.71;94039.78;5007933;28;20105;-76
2023/12/20 02:03:16;;;;;;;19.90;11.88;;;;;;;1.24;58.47;94052.97;4999985;28;20114;-76
2023/12/20 02:05:42;;;;;;;20.85;13.10;;;;;;;1.20;58.65;94057.13;5010440;28;20132;-75
2023/12/20 02:08:07;;;;;;;19.13;12.32;;;;;;;1.26;58.64;94056.16;5005333;28;20109;-76
2023/12/20 02:10:33;;;;;;;18.58;12.15;;;;;;;1.22;58.16;94037.53;5008266;28;20052;-76
2023/12/20 02:12:58;;;;;;;18.30;11.45;;;;;;;1.10;58.63;94042.13;5005939;28;20052;-76
2023/12/20 02:15:24;;;;;;;18.77;12.70;;;;;;;1.13;58.62;94036.38;5008720;28;20025;-76
2023/12/20 02:17:50;;;;;;;25.33;16.40;;;;;;;1.27;58.42;94041.22;5004908;28;20535;-75
2023/12/20 02:20:16;;;;;;;24.17;14.48;;;;;;;1.02;58.93;94023.44;4996292;28;20057;-75
2023/12/20 02:22:41;;;;;;;19.60;13.88;;;;;;;1.15;59.01;94036.13;5005828;28;20045;-75
2023/12/20 02:25:07;;;;;;;20.10;12.07;;;;;;;1.15;58.64;94030.88;5006583;28;20026;-77
2023/12/20 02:27:32;;;;;;;17.60;10.52;;;;;;;1.15;58.75;94018.59;5009944;28;20049;-76
2023/12/20 02:29:58;;;;;;;13.55;9.13;;;;;;;1.18;58.38;94023.31;4989623;28;20042;-76
2023/12/20 02:32:26;;;;;;;13.23;8.57;;;;;;;1.21;58.62;94020.22;4993525;28;20102;-76
2023/12/20 02:34:52;;;;;;;15.65;8.70;;;;;;;1.10;58.16;94002.03;5007531;28;20378;-76
2023/12/20 02:37:17;;;;;;;13.63;8.73;;;;;;;1.03;58.47;94007.50;5007143;28;20489;-76
2023/12/20 02:39:42;;;;;;;14.77;8.88;;;;;;;1.03;58.40;93993.59;4990695;28;20105;-75
2023/12/20 02:42:08;;;;;;;18.77;11.18;;;;;;;1.16;58.16;94017.56;5009636;28;20091;-76
2023/12/20 02:44:33;;;;;;;19.00;11.57;;;;;;;1.10;58.25;94007.28;5007317;28;20041;-77
2023/12/20 02:46:59;;;;;;;17.83;10.55;;;;;;;1.14;58.35;94014.38;4993182;28;20044;-78
2023/12/20 02:49:24;;;;;;;19.20;12.00;;;;;;;1.09;58.29;94010.91;4989613;28;20467;-74
2023/12/20 02:51:50;;;;;;;20.13;12.68;;;;;;;1.02;58.54;94007.72;4991756;28;20388;-77
2023/12/20 02:54:15;;;;;;;18.73;12.18;;;;;;;0.96;58.48;93995.63;5005781;28;20076;-77
2023/12/20 02:56:41;;;;;;;20.35;13.27;;;;;;;1.03;58.22;94001.47;4993799;28;20128;-77
2023/12/20 02:59:08;;;;;;;20.35;12.00;;;;;;;0.92;58.26;93997.16;5007906;28;20497;-77
2023/12/20 03:01:34;;;;;;;19.40;12.13;;;;;;;0.92;58.61;93997.16;4993903;28;20540;-76
2023/12/20 03:03:59;;;;;;;18.08;11.82;;;;;;;0.97;58.37;94005.06;5005838;28;20105;-76
2023/12/20 03:06:25;;;;;;;22.98;13.30;;;;;;;0.88;58.61;94001.31;5008278;28;20903;-77
2023/12/20 03:08:50;;;;;;;24.83;13.27;;;;;;;0.89;58.49;93992.44;4989102;28;20033;-77
2023/12/20 03:11:15;;;;;;;21.88;14.50;;;;;;;0.75;58.88;93998.06;4990836;28;20032;-77
2023/12/20 03:13:41;;;;;;;24.35;16.52;;;;;;;0.73;59.31;93987.06;5000798;28;20467;-76
2023/12/20 03:16:13;;;;;;;32.60;16.40;;;;;;;0.86;59.42;93998.94;5000230;28;20040;-76
2023/12/20 03:18:40;;;;;;;23.02;14.50;;;;;;;0.68;59.16;93989.63;5007955;28;20026;-76
2023/12/20 03:21:05;;;;;;;28.90;17.00;;;;;;;0.82;59.42;94002.31;4993515;28;20081;-77
2023/12/20 03:23:33;;;;;;;29.02;17.48;;;;;;;0.79;59.58;93991.28;5005875;28;20037;-77
2023/12/20 03:25:59;;;;;;;27.42;18.15;;;;;;;0.83;59.42;93993.41;4983797;28;20570;-77
2023/12/20 03:28:26;;;;;;;27.98;16.80;;;;;;;0.79;59.01;93975.56;4991012;28;20056;-77
2023/12/20 03:30:51;;;;;;;25.40;14.52;;;;;;;0.91;59.16;93991.13;4985029;28;20028;-77
2023/12/20 03:33:17;;;;;;;18.55;11.18;;;;;;;0.94;58.78;93989.84;5006163;28;20592;-74
2023/12/20 03:35:42;;;;;;;19.02;11.75;;;;;;;0.88;58.95;93978.56;5002451;28;20045;-74
2023/12/20 03:38:07;;;;;;;22.25;10.30;;;;;;;0.74;58.72;93970.28;5007328;28;20041;-74
2023/12/20 03:40:33;;;;;;;19.45;11.55;;;;;;;0.73;58.61;93979.19;5004863;28;20468;-78
2023/12/20 03:42:59;;;;;;;22.55;13.73;;;;;;;0.72;59.14;93975.00;5008614;28;20022;-77
2023/12/20 03:45:24;;;;;;;19.20;12.20;;;;;;;0.69;58.93;93972.09;4991161;28;20032;-79
2023/12/20 03:47:54;;;;;;;26.90;11.98;;;;;;;0.74;59.10;93980.00;5008662;28;20071;-77
2023/12/20 03:50:20;;;;;;;16.00;10.23;;;;;;;0.71;58.98;93990.94;5003880;28;20546;-76
2023/12/20 03:52:45;;;;;;;19.27;11.02;;;;;;;0.71;59.14;93980.47;5006407;28;20135;-77
2023/12/20 03:55:11;;;;;;;16.90;9.90;;;;;;;0.71;58.83;93976.03;5003018;28;20498;-76
2023/12/20 03:57:36;;;;;;;21.95;11.05;;;;;;;0.59;58.77;93957.09;5006103;28;20029;-76
2023/12/20 04:00:02;;;;;;;19.98;12.40;;;;;;;0.70;58.71;93977.06;5003898;28;20069;-76
2023/12/20 04:02:30;;;;;;;25.73;11.80;;;;;;;0.70;58.86;93978.88;5005356;28;20029;-75
2023/12/20 04:04:55;;;;;;;20.15;12.98;;;;;;;0.67;59.11;93968.91;5006156;28;20057;-76
2023/12/20 04:07:21;;;;;;;16.98;11.95;;;;;;;0.57;59.22;93953.91;5005507;28;20783;-76
2023/12/20 04:09:48;;;;;;;19.45;11.27;;;;;;;0.44;59.16;93941.22;5003059;28;20444;-76
2023/12/20 04:12:13;;;;;;;16.45;10.85;;;;;;;0.33;59.11;93936.91;5005567;28;20195;-77
2023/12/20 04:14:38;;;;;;;19.58;11.52;;;;;;;0.57;59.13;93950.50;4994368;28;20667;-77
2023/12/20 04:17:04;;;;;;;20.65;10.23;;;;;;;0.52;58.96;93932.91;5003336;28;20041;-76
2023/12/20 04:19:29;;;;;;;15.02;9.35;;;;;;;0.65;58.82;93940.38;4987360;28;20033;-77
2023/12/20 04:21:54;;;;;;;14.15;8.60;;;;;;;0.64;59.17;93958.97;5005978;28;20033;-76
2023/12/20 04:24:22;;;;;;;13.63;8.90;;;;;;;0.57;58.96;93948.69;5007981;28;20584;-77
2023/12/20 04:26:48;;;;;;;15.35;9.50;;;;;;;0.54;58.81;93943.16;4995035;28;20129;-76
2023/12/20 04:29:13;;;;;;;13.88;9.43;;;;;;;0.38;58.82;93925.72;5003687;28;20342;-77
2023/12/20 04:31:38;;;;;;;17.85;13.10;;;;;;;0.55;58.52;93935.03;4994051;28;20375;-75
2023/12/20 04:34:04;;;;;;;24.08;14.23;;;;;;;0.36;59.30;93925.94;5003763;28;20025;-76
2023/12/20 04:36:29;;;;;;;20.33;12.25;;;;;;;0.40;59.10;93911.34;5007387;28;20057;-77
2023/12/20 04:38:55;;;;;;;16.42;11.57;;;;;;;0.38;59.14;93916.03;5004020;28;20065;-77
2023/12/20 04:41:20;;;;;;;21.35;13.20;;;;;;;0.26;59.66;93912.75;5007205;28;20151;-78
2023/12/20 04:43:46;;;;;;;14.75;10.48;;;;;;;0.30;59.49;93922.50;5003169;28;20038;-77
2023/12/20 04:46:11;;;;;;;16.85;11.48;;;;;;;0.36;59.40;93925.94;5002461;28;20491;-77
2023/12/20 04:48:37;;;;;;;14.40;10.57;;;;;;;0.25;59.71;93924.28;5010859;28;20030;-76
2023/12/20 04:51:02;;;;;;;16.75;11.27;;;;;;;0.29;59.61;93930.59;5008083;28;20045;-77
2023/12/20 04:53:27;;;;;;;18.73;12.65;;;;;;;0.29;59.94;93922.75;4988595;28;20575;-77
2023/12/20 04:55:53;;;;;;;20.88;11.38;;;;;;;0.27;60.17;93917.75;5007992;28;20080;-76
2023/12/20 04:58:19;;;;;;;21.92;11.93;;;;;;;0.38;59.98;93923.88;5007501;28;20487;-77
2023/12/20 05:00:44;;;;;;;17.88;11.70;;;;;;;0.25;59.41;93901.50;5009051;28;20025;-77
2023/12/20 05:03:09;;;;;;;26.33;13.52;;;;;;;0.30;60.10;93906.03;5008687;28;20062;-76
2023/12/20 05:05:35;;;;;;;19.20;11.52;;;;;;;0.37;59.47;93917.06;5008215;28;20137;-78
2023/12/20 05:08:01;;;;;;;16.05;11.40;;;;;;;0.21;60.30;93902.25;4998166;28;20046;-76
2023/12/20 05:10:27;;;;;;;14.13;11.27;;;;;;;0.24;60.35;93899.16;4989349;28;20042;-77
2023/12/20 05:12:54;;;;;;;16.08;10.13;;;;;;;0.33;59.87;93911.56;4998768;28;20033;-77
2023/12/20 05:15:20;;;;;;;15.95;10.98;;;;;;;0.43;58.56;93908.25;5006620;28;20162;-77
2023/12/20 05:17:45;;;;;;;29.10;15.55;;;;;;;0.26;59.63;93905.72;5012122;28;20037;-75
2023/12/20 05:20:11;;;;;;;21.08;14.30;;;;;;;0.23;59.99;93898.38;4988724;28;20123;-76
2023/12/20 05:22:36;;;;;;;28.58;21.08;;;;;;;0.25;60.77;93905.97;5008591;28;20537;-74
2023/12/20 05:25:04;;;;;;;25.95;16.98;;;;;;;0.30;59.89;93900.81;4989146;28;20056;-77
2023/12/20 05:27:29;;;;;;;28.48;19.48;;;;;;;-0.08;60.19;93857.25;4991550;28;20128;-76
2023/12/20 05:29:57;;;;;;;30.05;17.85;;;;;;;0.20;60.03;93900.69;5007483;28;20485;-76
2023/12/20 05:32:23;;;;;;;29.48;19.52;;;;;;;0.15;60.17;93903.25;4990998;28;20250;-77
2023/12/20 05:34:49;;;;;;;31.63;21.08;;;;;;;0.18;60.08;93897.53;5005529;28;20052;-77
2023/12/20 05:37:14;;;;;;;33.22;21.25;;;;;;;0.20;59.43;93879.78;5005328;28;20294;-76
2023/12/20 05:39:40;;;;;;;35.70;22.52;;;;;;;0.12;59.83;93888.03;5009793;28;20250;-77
2023/12/20 05:42:05;;;;;;;37.38;24.77;;;;;;;0.21;60.00;93886.56;5001096;28;20038;-77
2023/12/20 05:44:30;;;;;;;41.50;28.83;;;;;;;0.15;59.73;93877.09;4991268;28;20099;-74
2023/12/20 05:46:56;;;;;;;45.30;27.55;;;;;;;0.23;59.68;93895.75;5006626;28;20588;-77
2023/12/20 05:49:21;;;;;;;38.83;26.60;;;;;;;0.16;58.88;93873.44;5006323;28;20029;-77
2023/12/20 05:51:47;;;;;;;42.78;26.58;;;;;;;0.21;58.64;93878.72;5008660;28;20122;-77
2023/12/20 05:54:13;;;;;;;43.75;27.65;;;;;;;-0.22;61.46;93893.44;5007507;28;20080;-77
2023/12/20 05:56:38;;;;;;;46.63;27.23;;;;;;;-0.08;59.54;93876.34;4993972;28;20539;-77
2023/12/20 05:59:03;;;;;;;41.47;26.08;;;;;;;-0.22;59.84;93856.84;5003640;28;20480;-77
2023/12/20 06:01:29;;;;;;;44.33;27.45;;;;;;;-0.19;60.42;93869.41;5008398;28;20488;-76
2023/12/20 06:03:55;;;;;;;44.40;28.02;;;;;;;-0.14;59.67;93877.31;5010964;28;20384;-77
2023/12/20 06:06:20;;;;;;;49.55;31.10;;;;;;;-0.32;60.33;93872.41;4980568;28;20166;-77
2023/12/20 06:08:46;;;;;;;51.63;32.28;;;;;;;-0.16;60.68;93876.78;4995534;28;20038;-77
2023/12/20 06:11:11;;;;;;;62.55;36.47;;;;;;;-0.15;59.53;93865.28;4997567;28;20033;-76
2023/12/20 06:13:36;;;;;;;62.53;39.80;;;;;;;-0.64;60.73;93874.09;5000565;28;21012;-76
2023/12/20 06:16:03;;;;;;;67.38;41.95;;;;;;;-0.56;61.95;93860.63;4986625;28;20056;-77
2023/12/20 06:18:28;;;;;;;65.57;39.53;;;;;;;-0.36;61.23;93881.75;4999392;28;20029;-75
2023/12/20 06:20:54;;;;;;;60.80;38.45;;;;;;;-0.40;60.92;93883.28;4997740;28;20508;-75
2023/12/20 06:23:20;;;;;;;63.33;41.20;;;;;;;-0.35;60.73;93878.13;4981037;28;21067;-74
2023/12/20 06:25:45;;;;;;;63.33;39.55;;;;;;;-0.35;60.77;93872.09;4970061;28;20062;-75
2023/12/20 06:28:14;;;;;;;65.32;43.97;;;;;;;-0.41;60.66;93863.41;4981285;28;20595;-75
2023/12/20 06:30:41;;;;;;;70.43;44.33;;;;;;;-0.33;61.16;93880.47;4983614;28;20253;-75
2023/12/20 06:33:07;;;;;;;78.43;48.88;;;;;;;-0.48;61.70;93875.09;4988196;28;20068;-74
2023/12/20 06:35:32;;;;;;;76.60;47.22;;;;;;;-0.41;62.04;93867.84;4985290;28;20033;-75
2023/12/20 06:37:58;;;;;;;66.15;43.58;;;;;;;-0.43;62.12;93875.91;4999591;28;20064;-75
2023/12/20 06:40:23;;;;;;;69.45;44.33;;;;;;;-0.54;62.22;93833.22;5000651;28;20099;-77
2023/12/20 06:42:49;;;;;;;67.93;43.40;;;;;;;-0.18;61.75;93878.84;5009096;28;20032;-78
2023/12/20 06:45:14;;;;;;;67.32;44.65;;;;;;;-0.17;61.58;93869.97;5008960;28;20048;-75
2023/12/20 06:47:40;;;;;;;70.85;45.35;;;;;;;-0.48;61.94;93836.66;5005770;28;20045;-76
2023/12/20 06:50:08;;;;;;;82.97;51.35;;;;;;;-0.37;62.50;93866.31;4989412;28;20400;-76
2023/12/20 06:52:33;;;;;;;107.55;65.97;;;;;;;-0.42;62.19;93853.19;5004773;28;20049;-76
2023/12/20 06:54:59;;;;;;;131.27;79.30;;;;;;;-0.58;63.80;93862.69;4993210;28;20396;-77
2023/12/20 06:57:25;;;;;;;115.68;74.43;;;;;;;-0.81;64.42;93832.34;5004388;28;20029;-76
2023/12/20 06:59:52;;;;;;;106.85;68.00;;;;;;;-0.42;63.19;93859.22;5007743;28;20546;-76
2023/12/20 07:02:17;;;;;;;109.15;68.30;;;;;;;-0.41;62.65;93846.94;5008558;28;20084;-77
2023/12/20 07:04:42;;;;;;;119.25;74.57;;;;;;;-0.73;65.00;93839.00;4994485;28;20060;-77
2023/12/20 07:07:08;;;;;;;128.70;75.70;;;;;;;-0.36;63.70;93834.72;4996673;28;20083;-76
2023/12/20 07:09:33;;;;;;;121.18;74.53;;;;;;;-0.30;63.02;93854.66;5012417;28;20026;-74
2023/12/20 07:11:59;;;;;;;118.43;72.72;;;;;;;-0.63;64.73;93844.34;5005066;28;20052;-76
2023/12/20 07:14:25;;;;;;;113.78;69.13;;;;;;;-0.30;63.85;93828.53;5006305;28;20504;-74
2023/12/20 07:16:50;;;;;;;117.82;76.07;;;;;;;-0.47;64.41;93843.47;4988463;28;20372;-76
2023/12/20 07:19:26;;;;;;;116.65;75.57;;;;;;;-0.22;64.26;93840.34;4986574;28;20057;-74
2023/12/20 07:21:51;;;;;;;130.15;80.35;;;;;;;-0.21;63.18;93808.75;4986444;28;20026;-76
2023/12/20 07:24:17;;;;;;;133.43;80.20;;;;;;;-0.05;63.32;93830.63;5002615;28;20083;-76
2023/12/20 07:26:42;;;;;;;142.40;84.90;;;;;;;-0.11;63.97;93832.38;4987275;28;20116;-75
2023/12/20 07:29:08;;;;;;;139.25;86.15;;;;;;;-0.40;64.67;93811.94;5005037;28;20029;-77
2023/12/20 07:31:34;;;;;;;139.95;83.53;;;;;;;-0.41;65.01;93807.75;5002144;28;20075;-77
2023/12/20 07:34:00;;;;;;;142.35;87.20;;;;;;;-0.33;64.37;93804.69;5005526;28;20682;-76
2023/12/20 07:36:25;;;;;;;140.45;84.50;;;;;;;-0.19;64.79;93822.34;4988252;28;20029;-77
2023/12/20 07:38:50;;;;;;;146.75;88.78;;;;;;;-0.47;64.93;93817.34;5002820;28;20065;-77
2023/12/20 07:41:16;;;;;;;138.93;85.50;;;;;;;-0.09;64.76;93832.13;5005846;28;20045;-77
2023/12/20 07:43:41;;;;;;;143.35;86.57;;;;;;;0.10;63.73;93827.38;5004225;28;20587;-76
2023/12/20 07:46:08;;;;;;;164.00;101.70;;;;;;;-0.68;65.71;93818.16;4987108;28;20029;-76
2023/12/20 07:48:35;;;;;;;164.10;101.53;;;;;;;-0.39;66.38;93830.00;5000318;28;20088;-76
2023/12/20 07:51:01;;;;;;;163.32;100.63;;;;;;;-0.78;66.80;93841.53;5004982;28;20131;-76
2023/12/20 07:53:27;;;;;;;155.82;97.15;;;;;;;-1.00;68.61;93818.00;4987471;28;20045;-76
2023/12/20 07:55:52;;;;;;;150.35;92.05;;;;;;;-0.46;67.11;93820.75;5005135;28;20038;-75
2023/12/20 07:58:18;;;;;;;149.40;97.90;;;;;;;-0.53;66.25;93813.88;4999229;28;20220;-76
2023/12/20 08:00:43;;;;;;;162.20;99.18;;;;;;;-0.38;66.84;93822.94;5006187;28;20056;-76
2023/12/20 08:03:09;;;;;;;153.40;97.47;;;;;;;-0.35;66.57;93819.84;5003193;28;20064;-76
2023/12/20 08:05:34;;;;;;;173.38;106.15;;;;;;;-1.16;68.93;93819.63;5006501;28;20515;-75
2023/12/20 08:08:00;;;;;;;166.93;101.40;;;;;;;-0.96;70.04;93806.03;5000723;28;20042;-76
2023/12/20 08:10:25;;;;;;;174.93;100.40;;;;;;;-0.65;68.83;93805.41;5005589;28;20378;-77
2023/12/20 08:12:51;;;;;;;172.23;104.38;;;;;;;-0.74;69.41;93808.69;5004978;28;20108;-76
2023/12/20 08:15:16;;;;;;;153.93;99.95;;;;;;;-0.46;68.70;93808.47;5005285;28;20068;-77
2023/12/20 08:17:42;;;;;;;149.57;91.47;;;;;;;-0.39;68.89;93809.09;4999590;28;20392;-75
2023/12/20 08:20:09;;;;;;;143.32;94.85;;;;;;;-0.30;69.42;93812.84;5005971;28;20169;-77
2023/12/20 08:22:35;;;;;;;146.65;90.50;;;;;;;0.13;68.19;93795.47;4980252;28;20049;-76
2023/12/20 08:25:01;;;;;;;147.32;92.68;;;;;;;-0.18;68.69;93789.16;5007502;28;20099;-76
2023/12/20 08:27:27;;;;;;;144.10;91.03;;;;;;;-0.10;68.39;93805.22;5008551;28;20041;-77
2023/12/20 08:29:52;;;;;;;144.02;90.35;;;;;;;-0.42;69.05;93796.50;4996312;28;20044;-76
2023/12/20 08:32:17;;;;;;;139.77;88.43;;;;;;;-0.10;69.38;93791.34;5003736;28;20171;-76
2023/12/20 08:34:43;;;;;;;134.52;87.22;;;;;;;-0.07;68.39;93798.69;5004567;28;20041;-76
2023/12/20 08:37:08;;;;;;;143.02;89.95;;;;;;;0.09;68.28;93786.56;5008785;28;20022;-76
2023/12/20 08:39:33;;;;;;;144.55;92.70;;;;;;;-0.33;68.17;93739.34;5008678;28;20049;-75
2023/12/20 08:41:59;;;;;;;149.43;93.07;;;;;;;-0.18;67.81;93763.81;5008141;28;20453;-76
2023/12/20 08:44:25;;;;;;;141.25;88.88;;;;;;;0.06;68.62;93774.75;5007193;28;20048;-75
2023/12/20 08:46:50;;;;;;;149.35;92.70;;;;;;;-0.16;68.85;93777.44;5007971;28;20041;-75
2023/12/20 08:49:15;;;;;;;156.57;94.65;;;;;;;-0.16;68.95;93750.50;5010226;28;20045;-75
2023/12/20 08:51:41;;;;;;;169.35;95.35;;;;;;;-0.48;70.05;93753.06;5009860;28;20460;-75
2023/12/20 08:54:10;;;;;;;151.15;95.18;;;;;;;0.09;68.72;93748.13;5009424;28;20057;-76
2023/12/20 08:56:35;;;;;;;168.40;98.10;;;;;;;-0.13;69.31;93761.25;5008565;28;20077;-75
2023/12/20 08:59:02;;;;;;;163.13;97.53;;;;;;;0.05;68.92;93767.97;5008705;28;20487;-75
2023/12/20 09:01:27;;;;;;;157.68;94.30;;;;;;;0.32;67.27;93737.31;5007882;28;20033;-75
2023/12/20 09:03:53;;;;;;;160.45;96.68;;;;;;;-0.14;68.44;93704.00;4991468;28;20467;-75
2023/12/20 09:06:18;;;;;;;156.00;96.95;;;;;;;0.04;68.51;93726.38;4996849;28;20037;-76
2023/12/20 09:08:43;;;;;;;162.20;98.50;;;;;;;0.03;69.71;93737.84;5009843;28;20041;-75
2023/12/20 09:11:09;;;;;;;162.77;101.93;;;;;;;0.25;69.53;93720.25;5008135;28;20568;-75
2023/12/20 09:13:34;;;;;;;162.93;100.30;;;;;;;0.22;68.59;93718.13;5007117;28;20060;-75
2023/12/20 09:16:00;;;;;;;165.07;102.38;;;;;;;0.40;68.26;93712.50;5008782;28;20034;-76
2023/12/20 09:18:25;;;;;;;166.30;104.75;;;;;;;0.25;68.52;93694.09;5009619;28;20037;-76
2023/12/20 09:20:51;;;;;;;169.48;101.93;;;;;;;-0.00;70.03;93673.00;5006779;28;20034;-76
2023/12/20 09:23:17;;;;;;;156.10;97.05;;;;;;;0.42;69.46;93673.78;5005480;28;20038;-77
2023/12/20 09:25:42;;;;;;;163.63;100.63;;;;;;;0.55;68.45;93678.56;5000756;28;20038;-76
2023/12/20 09:28:08;;;;;;;163.40;102.63;;;;;;;0.21;69.50;93656.38;5006351;28;20036;-76
2023/12/20 09:30:35;;;;;;;173.93;105.35;;;;;;;0.41;69.40;93681.88;4997643;28;20219;-77
2023/12/20 09:33:00;;;;;;;175.30;109.13;;;;;;;-0.15;71.69;93658.78;4995249;28;20154;-74
2023/12/20 09:35:26;;;;;;;176.63;105.18;;;;;;;0.06;71.28;93653.66;5006894;28;20409;-77
2023/12/20 09:37:51;;;;;;;176.60;106.60;;;;;;;0.15;71.40;93657.41;5008261;28;20053;-76
2023/12/20 09:40:20;;;;;;;176.07;105.03;;;;;;;0.47;70.96;93647.66;4993647;28;20505;-76
2023/12/20 09:42:58;;;;;;;175.82;103.90;;;;;;;0.56;70.70;93656.59;5007182;28;20725;-76
2023/12/20 09:45:25;;;;;;;174.43;110.80;;;;;;;0.32;70.48;93650.19;5008011;28;20107;-76
2023/12/20 09:47:53;;;;;;;171.50;109.20;;;;;;;-0.11;72.44;93641.56;4990885;28;20096;-76
2023/12/20 09:50:20;;;;;;;178.50;105.32;;;;;;;0.51;71.73;93640.88;5007618;28;20034;-76
2023/12/20 09:52:49;;;;;;;174.25;104.28;;;;;;;0.19;72.00;93621.88;5006939;28;20038;-76
2023/12/20 09:55:16;;;;;;;161.35;99.78;;;;;;;0.43;71.13;93638.75;5007039;28;20033;-76
2023/12/20 09:57:42;;;;;;;169.50;104.80;;;;;;;0.05;72.32;93620.75;5007994;28;20032;-76
2023/12/20 10:00:08;;;;;;;173.75;104.38;;;;;;;-0.07;72.97;93611.25;4987869;28;20038;-77
2023/12/20 10:02:35;;;;;;;172.50;103.25;;;;;;;0.42;72.22;93639.78;4988157;28;20034;-76
2023/12/20 10:05:03;;;;;;;179.20;104.88;;;;;;;0.40;71.29;93633.25;5001034;28;20382;-75
2023/12/20 10:07:28;;;;;;;182.40;104.30;;;;;;;0.41;72.25;93635.59;5002798;28;20033;-76
2023/12/20 10:09:56;;;;;;;173.48;101.78;;;;;;;0.82;70.95;93620.84;5009679;28;20091;-76
2023/12/20 10:12:21;;;;;;;165.73;100.95;;;;;;;0.65;71.00;93602.72;5004678;28;20045;-76
2023/12/20 10:14:46;;;;;;;176.57;108.68;;;;;;;0.70;71.24;93594.09;5008226;28;20038;-77
2023/12/20 10:17:12;;;;;;;181.23;104.40;;;;;;;0.89;71.01;93587.34;4984589;28;20072;-76
2023/12/20 10:19:37;;;;;;;175.93;103.70;;;;;;;1.14;69.19;93589.22;4987021;28;20570;-76
2023/12/20 10:22:04;;;;;;;179.00;104.93;;;;;;;1.22;68.48;93578.25;5004812;28;20025;-76
2023/12/20 10:24:30;;;;;;;174.02;104.75;;;;;;;1.28;68.48;93577.19;4985260;28;20068;-77
2023/12/20 10:27:08;;;;;;;168.95;102.25;;;;;;;1.63;68.29;93592.94;4984474;28;20069;-78
2023/12/20 10:29:35;;;;;;;165.32;104.55;;;;;;;1.40;68.17;93580.34;4992506;28;20038;-77
2023/12/20 10:32:26;;;;;;;168.32;103.90;;;;;;;1.56;68.16;93581.94;4991698;28;20044;-77
2023/12/20 10:34:53;;;;;;;174.10;104.43;;;;;;;1.24;68.25;93555.19;4983670;28;20072;-78
2023/12/20 10:37:19;;;;;;;176.68;108.38;;;;;;;1.29;69.07;93552.56;4989931;28;20037;-78
2023/12/20 10:39:50;;;;;;;177.52;105.72;;;;;;;1.44;68.79;93564.91;5001773;28;20053;-77
2023/12/20 10:42:16;;;;;;;175.70;108.68;;;;;;;1.39;68.78;93557.03;4987904;28;20117;-77
2023/12/20 10:44:42;;;;;;;170.88;105.63;;;;;;;1.35;68.25;93543.69;4998343;28;20081;-77
2023/12/20 10:47:09;;;;;;;173.13;105.45;;;;;;;1.51;68.31;93554.94;4986655;28;20472;-77
2023/12/20 10:49:36;;;;;;;168.82;105.30;;;;;;;1.63;68.42;93553.63;4982106;28;21146;-77
2023/12/20 10:52:03;;;;;;;164.68;104.15;;;;;;;2.16;66.77;93545.44;5001229;28;20492;-77
2023/12/20 10:54:29;;;;;;;173.45;105.40;;;;;;;1.90;66.63;93531.59;5004741;28;20034;-77
2023/12/20 10:56:57;;;;;;;155.20;100.85;;;;;;;2.14;66.52;93543.06;5002360;28;20453;-76
2023/12/20 10:59:24;;;;;;;165.23;104.55;;;;;;;2.11;65.82;93527.84;5005555;28;20049;-77
2023/12/20 11:01:53;;;;;;;153.40;102.13;;;;;;;2.39;64.93;93524.63;5002872;28;20044;-75
2023/12/20 11:04:31;;;;;;;160.13;100.43;;;;;;;2.17;65.68;93536.50;4981733;28;20050;-78
2023/12/20 11:07:23;;;;;;;143.00;96.22;;;;;;;2.49;64.82;93497.56;5003381;28;20069;-76
2023/12/20 11:10:31;;;;;;;154.45;97.60;;;;;;;2.09;64.05;93456.53;4998015;28;20038;-76
2023/12/20 11:13:09;;;;;;;153.40;98.85;;;;;;;2.47;65.49;93510.94;4964171;28;20518;-77
2023/12/20 11:15:36;;;;;;;149.07;97.13;;;;;;;2.16;65.82;93503.47;4985643;28;20037;-77